createdAt,value
2018-03-16T00:01:04.044Z,9.40
2018-03-16T00:03:32.375Z,9.50
2018-03-16T00:05:59.869Z,9.40
2018-03-16T00:08:27.378Z,9.50
2018-03-16T00:10:54.873Z,9.50
2018-03-16T00:13:22.393Z,9.50
2018-03-16T00:15:49.894Z,9.50
2018-03-16T00:18:17.441Z,9.50
2018-03-16T00:20:44.937Z,9.40
2018-03-16T00:23:12.449Z,9.50
2018-03-16T00:25:40.040Z,9.40
2018-03-16T00:28:07.491Z,9.40
2018-03-16T00:30:35.022Z,9.40
2018-03-16T00:33:02.529Z,9.40
2018-03-16T00:35:30.298Z,9.40
2018-03-16T00:37:57.824Z,9.30
2018-03-16T00:40:25.369Z,9.30
2018-03-16T00:42:52.873Z,9.30
2018-03-16T00:45:20.376Z,9.30
2018-03-16T00:47:48.637Z,9.20
2018-03-16T00:50:16.137Z,9.20
2018-03-16T00:52:43.629Z,9.10
2018-03-16T00:55:11.127Z,9.10
2018-03-16T00:57:38.635Z,9.20
2018-03-16T01:00:06.132Z,9.20
2018-03-16T01:02:33.641Z,9.10
2018-03-16T01:05:01.901Z,9.10
2018-03-16T01:07:29.404Z,9.10
2018-03-16T01:09:56.905Z,9.10
2018-03-16T01:12:24.460Z,9.10
2018-03-16T01:14:51.962Z,9.10
2018-03-16T01:17:20.234Z,9.10
2018-03-16T01:19:48.528Z,9.10
2018-03-16T01:22:16.018Z,9.10
2018-03-16T01:24:43.532Z,9.10
2018-03-16T01:27:11.021Z,9.10
2018-03-16T01:29:38.530Z,9.10
2018-03-16T01:32:06.797Z,9.10
2018-03-16T01:34:34.301Z,9.10
2018-03-16T01:37:01.797Z,9.00
2018-03-16T01:39:29.301Z,9.00
2018-03-16T01:41:56.794Z,9.00
2018-03-16T01:44:24.297Z,9.00
2018-03-16T01:46:51.813Z,9.00
2018-03-16T01:49:19.431Z,9.00
2018-03-16T01:51:46.940Z,9.00
2018-03-16T01:54:14.433Z,9.00
2018-03-16T01:56:41.939Z,8.90
2018-03-16T01:59:09.457Z,8.90
2018-03-16T02:01:36.964Z,8.90
2018-03-16T02:04:04.454Z,8.90
2018-03-16T02:06:31.961Z,8.90
2018-03-16T02:08:59.449Z,8.90
2018-03-16T02:11:26.954Z,8.90
2018-03-16T02:13:54.459Z,8.90
2018-03-16T02:16:21.979Z,8.90
2018-03-16T02:18:49.473Z,8.90
2018-03-16T02:21:16.985Z,8.90
2018-03-16T02:23:44.485Z,8.90
2018-03-16T02:26:11.986Z,8.80
2018-03-16T02:28:39.486Z,8.80
2018-03-16T02:31:06.991Z,8.80
2018-03-16T02:33:35.275Z,8.80
2018-03-16T02:36:02.774Z,8.80
2018-03-16T02:38:30.298Z,8.70
2018-03-16T02:40:58.562Z,8.70
2018-03-16T02:43:26.070Z,8.70
2018-03-16T02:45:53.565Z,8.70
2018-03-16T02:48:21.074Z,8.60
2018-03-16T02:50:48.576Z,8.60
2018-03-16T02:53:16.098Z,8.60
2018-03-16T02:55:43.604Z,8.60
2018-03-16T02:58:11.118Z,8.60
2018-03-16T03:00:38.621Z,8.60
2018-03-16T03:03:06.910Z,8.50
2018-03-16T03:05:34.412Z,8.50
2018-03-16T03:08:01.937Z,8.50
2018-03-16T03:10:29.429Z,8.50
2018-03-16T03:12:56.937Z,8.50
2018-03-16T03:15:24.440Z,8.60
2018-03-16T03:17:51.938Z,8.60
2018-03-16T03:20:19.444Z,8.50
2018-03-16T03:22:46.947Z,8.50
2018-03-16T03:25:14.453Z,8.50
2018-03-16T03:27:41.953Z,8.50
2018-03-16T03:30:09.464Z,8.50
2018-03-16T03:32:36.978Z,8.50
2018-03-16T03:35:04.492Z,8.40
2018-03-16T03:37:31.991Z,8.40
2018-03-16T03:39:59.497Z,8.40
2018-03-16T03:42:26.986Z,8.30
2018-03-16T03:44:54.505Z,8.30
2018-03-16T03:47:22.010Z,8.40
2018-03-16T03:49:49.546Z,8.40
2018-03-16T03:52:17.049Z,8.30
2018-03-16T03:54:45.320Z,8.40
2018-03-16T03:57:12.829Z,8.40
2018-03-16T03:59:40.324Z,8.40
2018-03-16T04:02:07.832Z,8.40
2018-03-16T04:04:35.324Z,8.40
2018-03-16T04:07:02.829Z,8.40
2018-03-16T04:09:30.339Z,8.40
2018-03-16T04:11:57.845Z,8.40
2018-03-16T04:14:25.341Z,8.40
2018-03-16T04:16:52.845Z,8.40
2018-03-16T04:19:21.110Z,8.40
2018-03-16T04:21:48.618Z,8.40
2018-03-16T04:24:16.118Z,8.40
2018-03-16T04:26:43.623Z,8.40
2018-03-16T04:29:11.126Z,8.40
2018-03-16T04:31:38.664Z,8.40
2018-03-16T04:34:06.160Z,8.40
2018-03-16T04:36:33.673Z,8.40
2018-03-16T04:39:01.179Z,8.40
2018-03-16T04:41:28.682Z,8.30
2018-03-16T04:43:56.227Z,8.30
2018-03-16T04:46:23.772Z,8.30
2018-03-16T04:48:51.369Z,8.30
2018-03-16T04:51:18.866Z,8.30
2018-03-16T04:53:46.386Z,8.40
2018-03-16T04:56:13.896Z,8.30
2018-03-16T04:58:41.401Z,8.30
2018-03-16T05:01:08.902Z,8.30
2018-03-16T05:03:36.413Z,8.40
2018-03-16T05:06:03.926Z,8.40
2018-03-16T05:08:31.434Z,8.40
2018-03-16T05:10:58.956Z,8.40
2018-03-16T05:13:26.445Z,8.30
2018-03-16T05:15:53.953Z,8.30
2018-03-16T05:18:22.219Z,8.30
2018-03-16T05:20:49.735Z,8.30
2018-03-16T05:23:17.230Z,8.40
2018-03-16T05:25:44.735Z,8.30
2018-03-16T05:28:12.234Z,8.30
2018-03-16T05:30:39.797Z,8.30
2018-03-16T05:33:07.253Z,8.30
2018-03-16T05:35:34.768Z,8.30
2018-03-16T05:38:02.270Z,8.30
2018-03-16T05:40:29.784Z,8.30
2018-03-16T05:42:57.289Z,8.30
2018-03-16T05:45:24.807Z,8.30
2018-03-16T05:47:52.321Z,8.30
2018-03-16T05:50:19.833Z,8.30
2018-03-16T05:52:47.326Z,8.30
2018-03-16T05:55:14.830Z,8.30
2018-03-16T05:57:42.332Z,8.40
2018-03-16T06:00:09.841Z,8.40
2018-03-16T06:02:37.356Z,8.40
2018-03-16T06:05:04.862Z,8.40
2018-03-16T06:07:32.370Z,8.40
2018-03-16T06:10:00.034Z,8.50
2018-03-16T06:12:27.538Z,8.50
2018-03-16T06:14:55.049Z,8.50
2018-03-16T06:17:22.564Z,8.50
2018-03-16T06:19:50.069Z,8.50
2018-03-16T06:22:17.573Z,8.50
2018-03-16T06:24:45.148Z,8.50
2018-03-16T06:27:12.729Z,8.60
2018-03-16T06:29:40.221Z,8.60
2018-03-16T06:32:07.735Z,8.60
2018-03-16T06:34:35.239Z,8.60
2018-03-16T06:37:02.750Z,8.70
2018-03-16T06:39:30.252Z,8.70
2018-03-16T06:41:58.525Z,8.80
2018-03-16T06:44:26.054Z,8.80
2018-03-16T06:46:53.572Z,8.80
2018-03-16T06:49:21.069Z,8.90
2018-03-16T06:51:48.561Z,9.00
2018-03-16T06:54:16.070Z,9.00
2018-03-16T06:56:43.642Z,9.00
2018-03-16T06:59:11.177Z,9.00
2018-03-16T07:01:38.682Z,9.00
2018-03-16T07:04:06.999Z,9.00
2018-03-16T07:06:34.494Z,9.00
2018-03-16T07:09:02.011Z,9.00
2018-03-16T07:11:29.514Z,9.00
2018-03-16T07:13:57.030Z,9.00
2018-03-16T07:16:24.530Z,9.00
2018-03-16T07:18:52.042Z,9.00
2018-03-16T07:21:19.538Z,9.00
2018-03-16T07:23:47.067Z,9.00
2018-03-16T07:26:14.565Z,9.00
2018-03-16T07:28:42.082Z,8.90
2018-03-16T07:31:11.047Z,8.90
2018-03-16T07:33:38.573Z,9.00
2018-03-16T07:36:06.102Z,9.00
2018-03-16T07:38:33.617Z,9.00
2018-03-16T07:41:01.138Z,9.00
2018-03-16T07:43:28.629Z,9.00
2018-03-16T07:46:00.593Z,9.00
2018-03-16T07:48:28.106Z,9.10
2018-03-16T07:50:55.618Z,9.20
2018-03-16T07:53:23.122Z,9.20
2018-03-16T07:55:50.637Z,9.30
2018-03-16T07:58:18.134Z,9.40
2018-03-16T08:00:45.730Z,9.40
2018-03-16T08:03:13.236Z,9.50
2018-03-16T08:05:40.750Z,9.60
2018-03-16T08:08:09.009Z,9.60
2018-03-16T08:10:36.517Z,9.60
2018-03-16T08:13:04.024Z,9.60
2018-03-16T08:15:31.537Z,9.70
2018-03-16T08:17:59.062Z,9.70
2018-03-16T08:20:26.563Z,9.70
2018-03-16T08:22:54.099Z,9.80
2018-03-16T08:25:21.623Z,9.80
2018-03-16T08:27:49.130Z,9.80
2018-03-16T08:30:16.621Z,9.90
2018-03-16T08:32:44.152Z,10.00
2018-03-16T08:35:11.662Z,10.00
2018-03-16T08:37:39.170Z,10.10
2018-03-16T08:40:06.676Z,10.20
2018-03-16T08:42:34.958Z,10.30
2018-03-16T08:45:02.462Z,10.30
2018-03-16T08:47:30.034Z,10.30
2018-03-16T08:49:57.539Z,10.30
2018-03-16T08:52:25.065Z,10.30
2018-03-16T08:54:52.566Z,10.20
2018-03-16T08:57:20.092Z,10.30
2018-03-16T08:59:47.670Z,10.20
2018-03-16T09:02:15.190Z,10.20
2018-03-16T09:04:42.749Z,10.20
2018-03-16T09:07:10.263Z,10.30
2018-03-16T09:09:37.773Z,10.30
2018-03-16T09:12:05.276Z,10.40
2018-03-16T09:14:32.789Z,10.40
2018-03-16T09:17:00.300Z,10.40
2018-03-16T09:19:27.825Z,10.50
2018-03-16T09:21:56.243Z,10.50
2018-03-16T09:24:23.767Z,10.50
2018-03-16T09:26:51.299Z,10.50
2018-03-16T09:29:18.814Z,10.60
2018-03-16T09:31:46.362Z,10.60
2018-03-16T09:34:13.873Z,10.60
2018-03-16T09:36:41.378Z,10.60
2018-03-16T09:39:08.886Z,10.70
2018-03-16T09:41:36.389Z,10.70
2018-03-16T09:44:03.913Z,10.70
2018-03-16T09:46:31.412Z,10.70
2018-03-16T09:48:59.184Z,10.60
2018-03-16T09:51:26.706Z,10.60
2018-03-16T09:53:54.201Z,10.70
2018-03-16T09:56:21.751Z,10.70
2018-03-16T09:58:49.265Z,10.70
2018-03-16T10:01:16.775Z,10.70
2018-03-16T10:03:44.285Z,10.70
2018-03-16T10:06:11.793Z,10.80
2018-03-16T10:08:39.314Z,10.80
2018-03-16T10:11:06.844Z,10.80
2018-03-16T10:13:34.342Z,10.80
2018-03-16T10:16:01.862Z,10.80
2018-03-16T10:18:29.383Z,10.80
2018-03-16T10:20:57.049Z,10.80
2018-03-16T10:23:24.557Z,10.90
2018-03-16T10:25:52.054Z,10.90
2018-03-16T10:28:19.561Z,11.00
2018-03-16T10:30:47.852Z,11.00
2018-03-16T10:33:15.362Z,11.10
2018-03-16T10:35:42.854Z,11.10
2018-03-16T10:38:10.366Z,11.20
2018-03-16T10:40:37.866Z,11.20
2018-03-16T10:43:05.380Z,11.20
2018-03-16T10:45:32.874Z,11.30
2018-03-16T10:48:00.406Z,11.30
2018-03-16T10:50:27.904Z,11.30
2018-03-16T10:52:55.413Z,11.30
2018-03-16T10:55:22.917Z,11.40
2018-03-16T10:57:50.423Z,11.50
2018-03-16T11:00:23.552Z,11.50
2018-03-16T11:02:51.037Z,11.50
2018-03-16T11:05:18.545Z,11.60
2018-03-16T11:08:06.881Z,11.60
2018-03-16T11:10:34.381Z,11.60
2018-03-16T11:13:01.891Z,11.60
2018-03-16T11:15:29.397Z,11.60
2018-03-16T11:17:56.893Z,11.60
2018-03-16T11:20:24.407Z,11.60
2018-03-16T11:22:51.897Z,11.60
2018-03-16T11:25:19.401Z,11.60
2018-03-16T11:27:46.928Z,11.50
2018-03-16T11:30:14.442Z,11.40
2018-03-16T11:32:41.939Z,11.40
2018-03-16T11:35:09.446Z,11.40
2018-03-16T11:37:36.948Z,11.40
2018-03-16T11:40:04.462Z,11.60
2018-03-16T11:42:31.965Z,11.70
2018-03-16T11:44:59.461Z,11.80
2018-03-16T11:47:26.977Z,11.90
2018-03-16T11:49:54.469Z,12.00
2018-03-16T11:52:22.038Z,11.90
2018-03-16T11:54:49.551Z,11.90
2018-03-16T11:57:17.956Z,11.80
2018-03-16T11:59:45.503Z,11.80
2018-03-16T12:02:13.005Z,11.90
2018-03-16T12:04:40.528Z,11.90
2018-03-16T12:07:08.039Z,11.80
2018-03-16T12:09:35.535Z,11.70
2018-03-16T12:12:03.054Z,11.70
2018-03-16T12:14:30.767Z,11.70
2018-03-16T12:16:58.528Z,11.60
2018-03-16T12:19:26.042Z,11.60
2018-03-16T12:21:53.535Z,11.60
2018-03-16T12:24:21.044Z,11.60
2018-03-16T12:26:48.546Z,11.60
2018-03-16T12:29:16.072Z,11.60
2018-03-16T12:31:43.564Z,11.60
2018-03-16T12:34:11.084Z,11.70
2018-03-16T12:36:38.802Z,11.70
2018-03-16T12:39:06.356Z,11.70
2018-03-16T12:41:33.865Z,11.70
2018-03-16T12:44:01.475Z,11.70
2018-03-16T12:46:28.974Z,11.80
2018-03-16T12:48:56.490Z,11.90
2018-03-16T12:51:24.036Z,11.90
2018-03-16T12:53:52.299Z,11.70
2018-03-16T12:56:19.785Z,11.70
2018-03-16T12:58:47.278Z,11.70
2018-03-16T13:01:14.792Z,11.70
2018-03-16T13:03:42.295Z,11.60
2018-03-16T13:06:09.818Z,11.60
2018-03-16T13:08:37.318Z,11.60
2018-03-16T13:11:04.829Z,11.60
2018-03-16T13:13:32.329Z,11.50
2018-03-16T13:15:59.866Z,11.40
2018-03-16T13:18:27.384Z,11.30
2018-03-16T13:20:54.906Z,11.30
2018-03-16T13:23:22.405Z,11.30
2018-03-16T13:25:49.928Z,11.30
2018-03-16T13:28:17.434Z,11.20
2018-03-16T13:30:44.946Z,11.10
2018-03-16T13:33:12.477Z,11.10
2018-03-16T13:35:39.999Z,11.00
2018-03-16T13:38:07.498Z,11.10
2018-03-16T13:40:34.992Z,11.10
2018-03-16T13:43:03.341Z,11.20
2018-03-16T13:45:30.846Z,11.30
2018-03-16T13:47:58.362Z,11.40
2018-03-16T13:50:25.863Z,11.50
2018-03-16T13:52:53.394Z,11.50
2018-03-16T13:55:20.968Z,11.50
2018-03-16T13:57:48.493Z,11.60
2018-03-16T14:00:16.205Z,11.60
2018-03-16T14:02:43.723Z,11.60
2018-03-16T14:05:11.218Z,11.70
2018-03-16T14:07:38.725Z,11.80
2018-03-16T14:10:06.219Z,11.90
2018-03-16T14:12:33.749Z,12.00
2018-03-16T14:15:01.262Z,12.10
2018-03-16T14:17:28.771Z,12.20
2018-03-16T14:19:56.258Z,12.20
2018-03-16T14:22:23.831Z,12.10
2018-03-16T14:24:51.334Z,12.00
2018-03-16T14:27:18.867Z,12.00
2018-03-16T14:29:46.693Z,11.90
2018-03-16T14:32:14.959Z,11.90
2018-03-16T14:34:42.573Z,11.80
2018-03-16T14:37:10.084Z,12.00
2018-03-16T14:39:38.353Z,12.10
2018-03-16T14:42:06.640Z,12.10
2018-03-16T14:44:34.162Z,12.10
2018-03-16T14:47:01.673Z,12.00
2018-03-16T14:49:29.200Z,11.90
2018-03-16T14:51:56.693Z,11.90
2018-03-16T14:54:24.330Z,11.90
2018-03-16T14:56:52.588Z,12.00
2018-03-16T14:59:20.098Z,12.00
2018-03-16T15:01:47.596Z,12.00
2018-03-16T15:04:15.888Z,11.90
2018-03-16T15:06:44.158Z,11.90
2018-03-16T15:09:11.670Z,11.90
2018-03-16T15:11:39.176Z,11.90
2018-03-16T15:14:06.709Z,11.90
2018-03-16T15:16:34.202Z,11.90
2018-03-16T15:19:02.484Z,11.90
2018-03-16T15:21:30.746Z,11.90
2018-03-16T15:23:58.240Z,11.90
2018-03-16T15:26:25.884Z,11.90
2018-03-16T15:28:53.337Z,11.90
2018-03-16T15:31:20.805Z,11.90
2018-03-16T15:33:48.276Z,11.90
2018-03-16T15:36:15.740Z,11.90
2018-03-16T15:38:43.489Z,11.80
2018-03-16T15:41:10.947Z,11.80
2018-03-16T15:43:38.428Z,11.80
2018-03-16T15:46:05.892Z,11.80
2018-03-16T15:48:33.348Z,11.80
2018-03-16T15:51:00.816Z,11.80
2018-03-16T15:53:28.272Z,11.70
2018-03-16T15:55:55.784Z,11.70
2018-03-16T15:58:23.249Z,11.70
2018-03-16T16:00:50.744Z,11.70
2018-03-16T16:03:18.229Z,11.70
2018-03-16T16:05:45.813Z,11.70
2018-03-16T16:08:13.291Z,11.70
2018-03-16T16:10:40.761Z,11.70
2018-03-16T16:13:08.264Z,11.70
2018-03-16T16:15:36.498Z,11.60
2018-03-16T16:18:03.968Z,11.60
2018-03-16T16:20:31.440Z,11.60
2018-03-16T16:22:59.680Z,11.60
2018-03-16T16:25:27.317Z,11.60
2018-03-16T16:27:54.788Z,11.60
2018-03-16T16:30:22.241Z,11.70
2018-03-16T16:32:49.711Z,11.70
2018-03-16T16:35:17.182Z,11.70
2018-03-16T16:37:44.683Z,11.60
2018-03-16T16:40:12.138Z,11.60
2018-03-16T16:42:39.627Z,11.60
2018-03-16T16:45:07.092Z,11.60
2018-03-16T16:47:34.545Z,11.50
2018-03-16T16:50:02.072Z,11.50
2018-03-16T16:52:29.544Z,11.50
2018-03-16T16:54:57.100Z,11.50
2018-03-16T16:57:24.498Z,11.50
2018-03-16T16:59:51.979Z,11.50
2018-03-16T17:02:19.463Z,11.40
2018-03-16T17:04:46.940Z,11.40
2018-03-16T17:07:14.392Z,11.40
2018-03-16T17:09:41.888Z,11.40
2018-03-16T17:12:09.364Z,11.40
2018-03-16T17:14:36.851Z,11.30
2018-03-16T17:17:04.323Z,11.30
2018-03-16T17:19:31.821Z,11.30
2018-03-16T17:21:59.281Z,11.30
2018-03-16T17:24:26.786Z,11.20
2018-03-16T17:26:54.260Z,11.10
2018-03-16T17:29:21.764Z,11.10
2018-03-16T17:31:50.221Z,11.00
2018-03-16T17:34:17.496Z,11.00
2018-03-16T17:36:45.045Z,11.00
2018-03-16T17:39:12.496Z,11.00
2018-03-16T17:41:39.977Z,11.00
2018-03-16T17:44:08.210Z,11.00
2018-03-16T17:46:35.690Z,11.00
2018-03-16T17:49:03.155Z,11.00
2018-03-16T17:51:30.648Z,11.00
2018-03-16T17:53:58.125Z,11.00
2018-03-16T17:56:25.611Z,10.90
2018-03-16T17:58:53.068Z,10.90
2018-03-16T18:01:20.552Z,10.90
2018-03-16T18:03:48.784Z,10.90
2018-03-16T18:06:16.273Z,10.90
2018-03-16T18:08:43.745Z,10.90
2018-03-16T18:11:11.220Z,10.80
2018-03-16T18:13:38.689Z,10.80
2018-03-16T18:16:06.147Z,10.80
2018-03-16T18:18:33.632Z,10.70
2018-03-16T18:21:01.088Z,10.70
2018-03-16T18:23:28.564Z,10.70
2018-03-16T18:25:56.033Z,10.70
2018-03-16T18:28:24.300Z,10.70
2018-03-16T18:30:51.755Z,10.70
2018-03-16T18:33:19.230Z,10.70
2018-03-16T18:35:46.719Z,10.60
2018-03-16T18:38:14.211Z,10.60
2018-03-16T18:40:41.682Z,10.60
2018-03-16T18:43:09.156Z,10.60
2018-03-16T18:45:37.407Z,10.60
2018-03-16T18:48:04.878Z,10.60
2018-03-16T18:50:32.336Z,10.50
2018-03-16T18:52:59.823Z,10.50
2018-03-16T18:55:27.313Z,10.50
2018-03-16T18:57:54.808Z,10.40
2018-03-16T19:00:22.269Z,10.30
2018-03-16T19:02:49.732Z,10.20
2018-03-16T19:05:17.989Z,10.10
2018-03-16T19:07:45.456Z,10.10
2018-03-16T19:10:12.940Z,10.00
2018-03-16T19:12:41.191Z,9.80
2018-03-16T19:17:43.255Z,9.60
2018-03-16T19:20:10.730Z,9.60
2018-03-16T19:22:38.198Z,9.60
2018-03-16T19:25:05.661Z,9.50
2018-03-16T19:27:33.181Z,9.50
2018-03-16T19:30:00.662Z,9.40
2018-03-16T19:32:28.892Z,9.30
2018-03-16T19:34:56.369Z,9.20
2018-03-16T19:37:24.588Z,9.10
2018-03-16T19:39:52.857Z,9.00
2018-03-16T19:42:20.309Z,9.00
2018-03-16T19:44:47.768Z,8.90
2018-03-16T19:47:16.016Z,8.70
2018-03-16T19:49:43.516Z,8.70
2018-03-16T19:52:10.982Z,8.60
2018-03-16T19:54:38.435Z,8.50
2018-03-16T19:57:05.924Z,8.40
2018-03-16T19:59:33.404Z,8.30
2018-03-16T20:02:00.875Z,8.20
2018-03-16T20:04:28.340Z,8.10
2018-03-16T20:06:55.807Z,7.90
2018-03-16T20:09:23.265Z,7.90
2018-03-16T20:11:50.737Z,7.90
2018-03-16T20:14:18.204Z,7.80
2018-03-16T20:16:45.975Z,7.80
2018-03-16T20:19:13.442Z,7.80
2018-03-16T20:21:40.898Z,7.70
2018-03-16T20:24:08.356Z,7.70
2018-03-16T20:26:35.817Z,7.70
2018-03-16T20:29:03.298Z,7.60
2018-03-16T20:31:30.756Z,7.60
2018-03-16T20:33:58.229Z,7.50
2018-03-16T20:36:26.459Z,7.40
2018-03-16T20:38:53.924Z,7.40
2018-03-16T20:41:21.394Z,7.40
2018-03-16T20:43:48.855Z,7.40
2018-03-16T20:46:16.314Z,7.40
2018-03-16T20:48:43.785Z,7.30
2018-03-16T20:51:11.259Z,7.30
2018-03-16T20:53:38.736Z,7.30
2018-03-16T20:56:06.198Z,7.20
2018-03-16T20:58:33.680Z,7.20
2018-03-16T21:01:01.161Z,7.10
2018-03-16T21:03:28.627Z,7.00
2018-03-16T21:05:56.127Z,7.00
2018-03-16T21:08:23.600Z,6.90
2018-03-16T21:10:51.076Z,6.90
2018-03-16T21:13:18.531Z,6.80
2018-03-16T21:15:46.008Z,6.80
2018-03-16T21:18:13.473Z,6.80
2018-03-16T21:20:40.940Z,6.60
2018-03-16T21:23:08.405Z,6.60
2018-03-16T21:25:35.864Z,6.50
2018-03-16T21:28:03.339Z,6.50
2018-03-16T21:30:30.820Z,6.50
2018-03-16T21:32:58.292Z,6.40
2018-03-16T21:35:25.772Z,6.40
2018-03-16T21:37:53.231Z,6.40
2018-03-16T21:40:20.741Z,6.40
2018-03-16T21:42:48.215Z,6.40
2018-03-16T21:45:15.696Z,6.40
2018-03-16T21:47:43.230Z,6.30
2018-03-16T21:50:10.688Z,6.30
2018-03-16T21:52:38.194Z,6.20
2018-03-16T21:55:05.653Z,6.20
2018-03-16T21:57:33.160Z,6.10
2018-03-16T22:00:00.626Z,6.10
2018-03-16T22:02:28.106Z,6.10
2018-03-16T22:04:55.568Z,6.10
2018-03-16T22:07:23.043Z,6.10
2018-03-16T22:09:50.516Z,6.10
2018-03-16T22:12:17.987Z,6.10
2018-03-16T22:14:45.453Z,6.10
2018-03-16T22:17:12.927Z,6.00
2018-03-16T22:19:40.395Z,6.00
2018-03-16T22:22:07.876Z,5.90
2018-03-16T22:24:36.107Z,5.80
2018-03-16T22:27:03.592Z,5.80
2018-03-16T22:29:31.045Z,5.80
2018-03-16T22:31:58.512Z,5.70
2018-03-16T22:34:25.990Z,5.70
2018-03-16T22:36:53.468Z,5.60
2018-03-16T22:39:20.935Z,5.60
2018-03-16T22:41:48.426Z,5.60
2018-03-16T22:44:15.887Z,5.60
2018-03-16T22:46:43.349Z,5.60
2018-03-16T22:49:10.827Z,5.50
2018-03-16T22:51:39.060Z,5.60
2018-03-16T22:54:06.540Z,5.60
2018-03-16T22:56:33.996Z,5.60
2018-03-16T22:59:01.481Z,5.60
2018-03-16T23:01:28.941Z,5.60
2018-03-16T23:03:56.404Z,5.60
2018-03-16T23:06:23.867Z,5.60
2018-03-16T23:08:51.347Z,5.60
2018-03-16T23:11:18.799Z,5.60
2018-03-16T23:13:46.288Z,5.50
2018-03-16T23:16:13.756Z,5.50
2018-03-16T23:18:41.992Z,5.50
2018-03-16T23:21:09.460Z,5.50
2018-03-16T23:23:36.960Z,5.50
2018-03-16T23:26:04.415Z,5.50
2018-03-16T23:28:31.906Z,5.50
2018-03-16T23:30:59.360Z,5.40
2018-03-16T23:33:27.017Z,5.40
2018-03-16T23:35:54.505Z,5.40
2018-03-16T23:38:21.969Z,5.40
2018-03-16T23:40:49.448Z,5.30
2018-03-16T23:43:16.929Z,5.30
2018-03-16T23:45:44.408Z,5.30
2018-03-16T23:48:11.877Z,5.30
2018-03-16T23:50:39.368Z,5.30
2018-03-16T23:53:06.828Z,5.20
2018-03-16T23:55:34.352Z,5.20
2018-03-16T23:58:01.816Z,5.20
